createdAt,value
2023-02-28T00:01:37.285Z,0.50
2023-02-28T00:06:39.173Z,0.40
2023-02-28T00:11:41.928Z,0.30
2023-02-28T00:16:44.021Z,0.20
2023-02-28T00:21:46.718Z,0.20
2023-02-28T00:26:52.243Z,0.10
2023-02-28T00:31:58.360Z,0.10
2023-02-28T00:37:00.358Z,0.00
2023-02-28T00:42:03.061Z,0.00
2023-02-28T00:47:05.231Z,-0.10
2023-02-28T00:52:07.118Z,-0.10
2023-02-28T00:57:08.967Z,-0.10
2023-02-28T01:02:10.767Z,-0.10
2023-02-28T01:07:12.721Z,-0.10
2023-02-28T01:12:14.688Z,-0.10
2023-02-28T01:17:16.929Z,-0.20
2023-02-28T01:22:19.679Z,-0.10
2023-02-28T01:27:21.590Z,-0.10
2023-02-28T01:32:23.465Z,-0.20
2023-02-28T01:37:25.369Z,-0.20
2023-02-28T01:42:27.196Z,-0.10
2023-02-28T01:47:33.006Z,-0.10
2023-02-28T01:52:35.255Z,-0.10
2023-02-28T01:57:40.298Z,-0.10
2023-02-28T02:02:48.642Z,-0.10
2023-02-28T02:07:52.597Z,-0.10
2023-02-28T02:13:09.652Z,-0.20
2023-02-28T02:18:31.610Z,-0.20
2023-02-28T02:23:45.519Z,-0.20
2023-02-28T02:29:19.406Z,-0.20
2023-02-28T02:34:36.469Z,-0.10
2023-02-28T02:39:50.348Z,0.00
2023-02-28T02:44:58.841Z,0.00
2023-02-28T02:50:05.650Z,0.10
2023-02-28T02:55:09.021Z,0.10
2023-02-28T03:00:11.636Z,0.10
2023-02-28T03:05:30.522Z,0.10
2023-02-28T03:10:40.120Z,0.10
2023-02-28T03:16:26.931Z,0.10
2023-02-28T03:21:40.608Z,0.10
2023-02-28T03:26:51.746Z,0.20
2023-02-28T03:32:24.892Z,0.10
2023-02-28T03:37:27.907Z,0.10
2023-02-28T03:42:31.023Z,0.10
2023-02-28T03:47:35.232Z,0.10
2023-02-28T03:52:41.049Z,0.10
2023-02-28T03:57:58.934Z,0.10
2023-02-28T04:03:00.786Z,0.00
2023-02-28T04:08:09.214Z,0.00
2023-02-28T04:13:11.084Z,0.00
2023-02-28T04:18:12.976Z,-0.10
2023-02-28T04:23:14.806Z,-0.10
2023-02-28T04:28:16.605Z,-0.20
2023-02-28T04:33:18.440Z,-0.20
2023-02-28T04:38:20.467Z,-0.30
2023-02-28T04:43:22.310Z,-0.30
2023-02-28T04:48:25.686Z,-0.40
2023-02-28T04:53:29.418Z,-0.40
2023-02-28T04:58:31.223Z,-0.50
2023-02-28T05:03:33.035Z,-0.50
2023-02-28T05:08:34.852Z,-0.60
2023-02-28T05:13:36.884Z,-0.60
2023-02-28T05:18:39.398Z,-0.70
2023-02-28T05:23:41.229Z,-0.70
2023-02-28T05:28:43.325Z,-0.70
2023-02-28T05:33:45.207Z,-0.80
2023-02-28T05:38:48.916Z,-0.80
2023-02-28T05:43:50.894Z,-0.90
2023-02-28T05:48:52.836Z,-0.90
2023-02-28T05:53:54.701Z,-0.90
2023-02-28T05:58:56.723Z,-1.00
2023-02-28T06:04:00.997Z,-1.00
2023-02-28T06:09:02.941Z,-1.00
2023-02-28T06:14:05.591Z,-0.90
2023-02-28T06:19:07.605Z,-0.90
2023-02-28T06:24:09.544Z,-0.90
2023-02-28T06:29:11.399Z,-0.80
2023-02-28T06:34:13.711Z,-0.70
2023-02-28T06:39:15.761Z,-0.70
2023-02-28T06:44:20.509Z,-0.60
2023-02-28T06:49:22.366Z,-0.50
2023-02-28T06:54:24.190Z,-0.50
2023-02-28T06:59:26.000Z,-0.50
2023-02-28T07:04:28.743Z,-0.10
2023-02-28T07:09:31.058Z,0.40
2023-02-28T07:14:32.941Z,0.70
2023-02-28T07:19:34.931Z,1.00
2023-02-28T07:24:36.796Z,1.60
2023-02-28T07:29:39.306Z,1.60
2023-02-28T07:34:41.191Z,1.30
2023-02-28T07:39:43.500Z,1.20
2023-02-28T07:44:45.348Z,1.20
2023-02-28T07:49:47.328Z,1.40
2023-02-28T07:54:49.239Z,1.60
2023-02-28T07:59:51.089Z,1.70
2023-02-28T08:04:53.134Z,1.80
2023-02-28T08:09:54.995Z,1.90
2023-02-28T08:14:56.794Z,2.10
2023-02-28T08:19:58.636Z,2.30
2023-02-28T08:25:00.443Z,2.50
2023-02-28T08:30:13.122Z,2.50
2023-02-28T08:35:15.341Z,2.40
2023-02-28T08:40:19.846Z,2.40
2023-02-28T08:45:21.703Z,2.60
2023-02-28T08:50:23.612Z,2.90
2023-02-28T08:55:25.490Z,3.10
2023-02-28T09:00:27.357Z,3.30
2023-02-28T09:05:30.869Z,3.70
2023-02-28T09:10:32.757Z,4.00
2023-02-28T09:15:34.563Z,4.30
2023-02-28T09:20:40.414Z,4.80
2023-02-28T09:25:50.239Z,5.10
2023-02-28T09:30:54.860Z,5.00
2023-02-28T09:36:02.126Z,5.00
2023-02-28T09:41:10.849Z,5.00
2023-02-28T09:46:26.793Z,5.40
2023-02-28T09:51:39.078Z,5.50
2023-02-28T09:56:42.303Z,5.90
2023-02-28T10:01:46.928Z,6.10
2023-02-28T10:06:52.478Z,6.30
2023-02-28T10:11:58.981Z,6.20
2023-02-28T10:17:16.556Z,6.50
2023-02-28T10:22:22.100Z,6.50
2023-02-28T10:27:27.230Z,6.70
2023-02-28T10:32:36.739Z,6.80
2023-02-28T10:37:39.763Z,6.50
2023-02-28T10:42:41.624Z,6.30
2023-02-28T10:47:56.509Z,6.90
2023-02-28T10:53:26.806Z,7.20
2023-02-28T10:58:32.582Z,7.40
2023-02-28T11:03:36.100Z,7.50
2023-02-28T11:08:47.061Z,7.60
2023-02-28T11:13:53.124Z,8.10
2023-02-28T11:18:56.302Z,7.90
2023-02-28T11:24:07.542Z,7.70
2023-02-28T11:29:20.083Z,8.00
2023-02-28T11:34:26.908Z,8.20
2023-02-28T11:39:29.120Z,8.00
2023-02-28T11:44:30.945Z,7.60
2023-02-28T11:49:35.295Z,7.60
2023-02-28T11:54:55.939Z,7.60
2023-02-28T12:00:02.139Z,7.30
2023-02-28T12:05:09.196Z,6.80
2023-02-28T12:10:32.881Z,6.70
2023-02-28T12:16:09.217Z,7.00
2023-02-28T12:21:30.281Z,6.70
2023-02-28T12:26:44.465Z,6.30
2023-02-28T12:31:50.853Z,6.50
2023-02-28T12:36:54.919Z,7.00
2023-02-28T12:42:08.747Z,7.20
2023-02-28T12:47:15.876Z,7.60
2023-02-28T12:52:24.963Z,7.50
2023-02-28T12:57:55.058Z,7.20
2023-02-28T13:03:05.742Z,7.00
2023-02-28T13:08:13.273Z,6.50
2023-02-28T13:13:20.973Z,6.70
2023-02-28T13:18:45.075Z,7.00
2023-02-28T13:23:53.302Z,7.10
2023-02-28T13:29:05.358Z,7.00
2023-02-28T13:34:15.942Z,6.90
2023-02-28T13:39:44.078Z,6.70
2023-02-28T13:45:08.935Z,6.80
2023-02-28T13:50:32.441Z,7.30
2023-02-28T13:55:54.144Z,7.80
2023-02-28T14:01:11.021Z,7.50
2023-02-28T14:06:26.701Z,7.20
2023-02-28T14:11:33.844Z,6.90
2023-02-28T14:16:48.695Z,6.70
2023-02-28T14:21:59.556Z,6.60
2023-02-28T14:27:17.369Z,6.50
2023-02-28T14:32:36.445Z,6.40
2023-02-28T14:37:44.770Z,6.30
2023-02-28T14:43:00.735Z,6.20
2023-02-28T14:48:03.999Z,6.10
2023-02-28T14:53:07.790Z,6.00
2023-02-28T14:58:25.737Z,6.00
2023-02-28T15:03:30.516Z,5.90
2023-02-28T15:08:37.144Z,5.80
2023-02-28T15:13:47.846Z,5.70
2023-02-28T15:19:25.208Z,5.70
2023-02-28T15:24:45.069Z,5.80
2023-02-28T15:29:51.944Z,5.70
2023-02-28T15:34:54.568Z,5.70
2023-02-28T15:39:59.399Z,5.50
2023-02-28T15:45:05.386Z,5.40
2023-02-28T15:50:12.098Z,5.30
2023-02-28T15:55:27.374Z,5.20
2023-02-28T16:00:36.863Z,5.00
2023-02-28T16:05:38.917Z,4.90
2023-02-28T16:10:40.917Z,4.80
2023-02-28T16:15:44.399Z,4.70
2023-02-28T16:20:46.318Z,4.60
2023-02-28T16:25:49.435Z,4.50
2023-02-28T16:30:54.726Z,4.40
2023-02-28T16:35:56.722Z,4.20
2023-02-28T16:41:00.605Z,4.10
2023-02-28T16:46:04.655Z,4.00
2023-02-28T16:51:06.605Z,3.90
2023-02-28T16:56:15.701Z,3.70
2023-02-28T17:01:23.009Z,3.70
2023-02-28T17:06:29.070Z,3.60
2023-02-28T17:11:31.634Z,3.50
2023-02-28T17:16:35.422Z,3.40
2023-02-28T17:21:38.158Z,3.30
2023-02-28T17:26:41.413Z,3.20
2023-02-28T17:31:43.480Z,3.10
2023-02-28T17:36:47.208Z,3.00
2023-02-28T17:41:49.139Z,2.90
2023-02-28T17:46:51.708Z,2.80
2023-02-28T17:51:53.666Z,2.70
2023-02-28T17:56:55.580Z,2.60
2023-02-28T18:01:57.466Z,2.50
2023-02-28T18:07:01.025Z,2.50
2023-02-28T18:12:02.993Z,2.40
2023-02-28T18:17:05.021Z,2.40
2023-02-28T18:22:08.467Z,2.30
2023-02-28T18:27:11.843Z,2.20
2023-02-28T18:32:13.838Z,2.20
2023-02-28T18:37:18.449Z,2.20
2023-02-28T18:42:20.284Z,2.20
2023-02-28T18:47:22.880Z,2.10
2023-02-28T18:52:25.221Z,2.10
2023-02-28T18:57:27.134Z,2.10
2023-02-28T19:02:29.033Z,2.00
2023-02-28T19:07:30.977Z,2.00
2023-02-28T19:12:36.943Z,1.80
2023-02-28T19:17:39.348Z,1.80
2023-02-28T19:22:41.739Z,1.70
2023-02-28T19:27:43.666Z,1.70
2023-02-28T19:32:45.592Z,1.70
2023-02-28T19:37:47.495Z,1.60
2023-02-28T19:42:50.276Z,1.50
2023-02-28T19:47:53.197Z,1.50
2023-02-28T19:52:56.324Z,1.40
2023-02-28T19:57:58.945Z,1.30
2023-02-28T20:03:00.779Z,1.20
2023-02-28T20:08:02.776Z,1.10
2023-02-28T20:13:05.071Z,1.10
2023-02-28T20:18:07.989Z,1.00
2023-02-28T20:23:09.879Z,0.90
2023-02-28T20:28:11.769Z,0.90
2023-02-28T20:33:13.706Z,0.80
2023-02-28T20:38:15.572Z,0.80
2023-02-28T20:43:17.391Z,0.70
2023-02-28T20:48:19.501Z,0.70
2023-02-28T20:53:22.303Z,0.60
2023-02-28T20:58:26.631Z,0.60
2023-02-28T21:03:28.485Z,0.50
2023-02-28T21:08:30.313Z,0.50
2023-02-28T21:13:32.159Z,0.40
2023-02-28T21:18:35.033Z,0.30
2023-02-28T21:23:37.150Z,0.30
2023-02-28T21:28:44.029Z,0.30
2023-02-28T21:33:46.512Z,0.20
2023-02-28T21:38:51.043Z,0.10
2023-02-28T21:43:53.446Z,0.10
2023-02-28T21:48:55.907Z,0.00
2023-02-28T21:53:58.965Z,0.00
2023-02-28T21:59:01.662Z,0.00
2023-02-28T22:04:05.909Z,-0.10
2023-02-28T22:09:09.915Z,-0.10
2023-02-28T22:14:12.593Z,-0.20
2023-02-28T22:19:14.721Z,-0.20
2023-02-28T22:24:20.053Z,-0.20
2023-02-28T22:29:22.439Z,-0.20
2023-02-28T22:34:24.348Z,-0.20
2023-02-28T22:39:26.222Z,-0.20
2023-02-28T22:44:28.047Z,-0.20
2023-02-28T22:49:30.124Z,-0.20
2023-02-28T22:54:31.976Z,-0.20
2023-02-28T22:59:33.833Z,-0.20
2023-02-28T23:04:35.896Z,-0.30
2023-02-28T23:09:37.864Z,-0.40
2023-02-28T23:14:39.695Z,-0.40
2023-02-28T23:19:41.569Z,-0.50
2023-02-28T23:24:43.410Z,-0.50
2023-02-28T23:29:45.315Z,-0.60
2023-02-28T23:34:47.194Z,-0.60
2023-02-28T23:39:49.039Z,-0.60
2023-02-28T23:44:50.870Z,-0.60
2023-02-28T23:49:53.641Z,-0.60
2023-02-28T23:54:55.700Z,-0.60
2023-02-28T23:59:57.666Z,-0.60
